sensor_id;sensor_type;location;lat;lon;timestamp;P1;durP1;ratioP1;P2;durP2;ratioP2
42196;SDS011;27866;48.146;17.098;2023-03-23T00:00:02;21.00;;;12.32;;
42196;SDS011;27866;48.146;17.098;2023-03-23T00:04:21;18.13;;;12.38;;
42196;SDS011;27866;48.146;17.098;2023-03-23T00:08:37;17.85;;;11.73;;
42196;SDS011;27866;48.146;17.098;2023-03-23T00:12:55;19.25;;;12.70;;
42196;SDS011;27866;48.146;17.098;2023-03-23T00:17:08;17.30;;;11.85;;
42196;SDS011;27866;48.146;17.098;2023-03-23T00:21:25;21.35;;;12.68;;
42196;SDS011;27866;48.146;17.098;2023-03-23T00:25:47;20.13;;;12.52;;
42196;SDS011;27866;48.146;17.098;2023-03-23T00:30:01;17.58;;;11.88;;
42196;SDS011;27866;48.146;17.098;2023-03-23T00:34:13;17.15;;;11.80;;
42196;SDS011;27866;48.146;17.098;2023-03-23T00:38:29;17.35;;;12.68;;
42196;SDS011;27866;48.146;17.098;2023-03-23T00:42:41;17.10;;;11.75;;
42196;SDS011;27866;48.146;17.098;2023-03-23T00:46:54;19.65;;;12.27;;
42196;SDS011;27866;48.146;17.098;2023-03-23T00:51:06;18.95;;;12.25;;
42196;SDS011;27866;48.146;17.098;2023-03-23T00:55:22;18.63;;;12.55;;
42196;SDS011;27866;48.146;17.098;2023-03-23T00:59:35;22.40;;;11.80;;
42196;SDS011;27866;48.146;17.098;2023-03-23T01:03:46;17.88;;;11.32;;
42196;SDS011;27866;48.146;17.098;2023-03-23T01:07:58;15.38;;;10.63;;
42196;SDS011;27866;48.146;17.098;2023-03-23T01:12:10;20.17;;;10.88;;
42196;SDS011;27866;48.146;17.098;2023-03-23T01:16:23;19.38;;;12.15;;
42196;SDS011;27866;48.146;17.098;2023-03-23T01:20:35;20.67;;;12.15;;
42196;SDS011;27866;48.146;17.098;2023-03-23T01:24:47;21.35;;;13.77;;
42196;SDS011;27866;48.146;17.098;2023-03-23T01:28:58;20.00;;;13.13;;
42196;SDS011;27866;48.146;17.098;2023-03-23T01:33:10;18.88;;;11.93;;
42196;SDS011;27866;48.146;17.098;2023-03-23T01:37:22;15.52;;;10.38;;
42196;SDS011;27866;48.146;17.098;2023-03-23T01:41:37;23.00;;;11.93;;
42196;SDS011;27866;48.146;17.098;2023-03-23T01:45:54;16.17;;;10.68;;
42196;SDS011;27866;48.146;17.098;2023-03-23T01:50:06;20.17;;;10.38;;
42196;SDS011;27866;48.146;17.098;2023-03-23T01:54:18;14.43;;;10.00;;
42196;SDS011;27866;48.146;17.098;2023-03-23T02:02:46;20.85;;;11.35;;
42196;SDS011;27866;48.146;17.098;2023-03-23T02:07:01;17.77;;;11.60;;
42196;SDS011;27866;48.146;17.098;2023-03-23T02:11:14;19.10;;;11.98;;
42196;SDS011;27866;48.146;17.098;2023-03-23T02:15:29;18.27;;;12.40;;
42196;SDS011;27866;48.146;17.098;2023-03-23T02:24:55;23.23;;;14.80;;
42196;SDS011;27866;48.146;17.098;2023-03-23T02:34:38;20.42;;;12.57;;
42196;SDS011;27866;48.146;17.098;2023-03-23T02:39:12;19.13;;;12.70;;
42196;SDS011;27866;48.146;17.098;2023-03-23T02:43:33;20.02;;;12.02;;
42196;SDS011;27866;48.146;17.098;2023-03-23T02:47:53;19.35;;;11.95;;
42196;SDS011;27866;48.146;17.098;2023-03-23T02:52:08;21.00;;;11.70;;
42196;SDS011;27866;48.146;17.098;2023-03-23T02:56:27;17.83;;;10.23;;
42196;SDS011;27866;48.146;17.098;2023-03-23T03:00:40;20.58;;;11.80;;
42196;SDS011;27866;48.146;17.098;2023-03-23T03:13:47;20.42;;;13.25;;
42196;SDS011;27866;48.146;17.098;2023-03-23T03:18:30;22.27;;;12.00;;
42196;SDS011;27866;48.146;17.098;2023-03-23T03:22:53;16.73;;;11.45;;
42196;SDS011;27866;48.146;17.098;2023-03-23T03:27:12;17.05;;;10.43;;
42196;SDS011;27866;48.146;17.098;2023-03-23T03:31:32;18.40;;;10.13;;
42196;SDS011;27866;48.146;17.098;2023-03-23T03:35:49;15.85;;;11.00;;
42196;SDS011;27866;48.146;17.098;2023-03-23T03:40:01;16.10;;;10.60;;
42196;SDS011;27866;48.146;17.098;2023-03-23T03:44:14;17.45;;;10.15;;
42196;SDS011;27866;48.146;17.098;2023-03-23T03:48:26;16.85;;;10.52;;
42196;SDS011;27866;48.146;17.098;2023-03-23T03:52:37;22.58;;;10.70;;
42196;SDS011;27866;48.146;17.098;2023-03-23T03:56:50;20.85;;;10.85;;
42196;SDS011;27866;48.146;17.098;2023-03-23T04:01:26;19.65;;;11.90;;
42196;SDS011;27866;48.146;17.098;2023-03-23T04:05:39;20.00;;;11.80;;
42196;SDS011;27866;48.146;17.098;2023-03-23T04:09:53;17.65;;;11.93;;
42196;SDS011;27866;48.146;17.098;2023-03-23T04:14:05;19.65;;;11.95;;
42196;SDS011;27866;48.146;17.098;2023-03-23T04:18:26;16.73;;;11.15;;
42196;SDS011;27866;48.146;17.098;2023-03-23T04:22:38;21.30;;;12.02;;
42196;SDS011;27866;48.146;17.098;2023-03-23T04:26:49;19.00;;;11.82;;
42196;SDS011;27866;48.146;17.098;2023-03-23T04:31:10;21.23;;;12.75;;
42196;SDS011;27866;48.146;17.098;2023-03-23T04:35:27;19.02;;;11.73;;
42196;SDS011;27866;48.146;17.098;2023-03-23T04:39:56;17.00;;;11.43;;
42196;SDS011;27866;48.146;17.098;2023-03-23T04:44:13;23.60;;;12.75;;
42196;SDS011;27866;48.146;17.098;2023-03-23T04:48:32;18.38;;;11.70;;
42196;SDS011;27866;48.146;17.098;2023-03-23T04:53:02;21.23;;;12.50;;
42196;SDS011;27866;48.146;17.098;2023-03-23T04:57:15;18.73;;;11.65;;
42196;SDS011;27866;48.146;17.098;2023-03-23T05:01:34;23.50;;;12.52;;
42196;SDS011;27866;48.146;17.098;2023-03-23T05:06:13;21.52;;;12.35;;
42196;SDS011;27866;48.146;17.098;2023-03-23T05:10:26;18.15;;;12.27;;
42196;SDS011;27866;48.146;17.098;2023-03-23T05:14:43;19.75;;;11.85;;
42196;SDS011;27866;48.146;17.098;2023-03-23T05:18:58;19.67;;;11.43;;
42196;SDS011;27866;48.146;17.098;2023-03-23T05:23:12;23.05;;;12.02;;
42196;SDS011;27866;48.146;17.098;2023-03-23T05:27:25;19.27;;;11.52;;
42196;SDS011;27866;48.146;17.098;2023-03-23T05:31:42;19.83;;;11.93;;
42196;SDS011;27866;48.146;17.098;2023-03-23T05:35:53;17.23;;;11.43;;
42196;SDS011;27866;48.146;17.098;2023-03-23T05:40:11;23.67;;;12.63;;
42196;SDS011;27866;48.146;17.098;2023-03-23T05:44:27;21.45;;;11.30;;
42196;SDS011;27866;48.146;17.098;2023-03-23T05:48:43;18.00;;;11.45;;
42196;SDS011;27866;48.146;17.098;2023-03-23T05:52:59;16.95;;;11.32;;
42196;SDS011;27866;48.146;17.098;2023-03-23T05:57:10;20.08;;;10.98;;
42196;SDS011;27866;48.146;17.098;2023-03-23T06:01:31;16.13;;;9.75;;
42196;SDS011;27866;48.146;17.098;2023-03-23T06:05:43;17.33;;;10.07;;
42196;SDS011;27866;48.146;17.098;2023-03-23T06:09:57;16.65;;;9.73;;
42196;SDS011;27866;48.146;17.098;2023-03-23T06:14:08;14.77;;;9.05;;
42196;SDS011;27866;48.146;17.098;2023-03-23T06:18:20;18.90;;;10.00;;
42196;SDS011;27866;48.146;17.098;2023-03-23T06:22:58;19.90;;;9.75;;
42196;SDS011;27866;48.146;17.098;2023-03-23T06:27:13;20.98;;;9.57;;
42196;SDS011;27866;48.146;17.098;2023-03-23T06:31:27;15.85;;;9.07;;
42196;SDS011;27866;48.146;17.098;2023-03-23T06:35:39;14.57;;;8.60;;
42196;SDS011;27866;48.146;17.098;2023-03-23T06:40:13;16.65;;;7.88;;
42196;SDS011;27866;48.146;17.098;2023-03-23T06:44:28;24.38;;;8.80;;
42196;SDS011;27866;48.146;17.098;2023-03-23T06:48:40;15.07;;;7.75;;
42196;SDS011;27866;48.146;17.098;2023-03-23T06:52:55;19.42;;;7.60;;
42196;SDS011;27866;48.146;17.098;2023-03-23T06:57:07;11.95;;;7.80;;
42196;SDS011;27866;48.146;17.098;2023-03-23T07:01:19;11.63;;;7.80;;
42196;SDS011;27866;48.146;17.098;2023-03-23T07:05:39;16.88;;;8.07;;
42196;SDS011;27866;48.146;17.098;2023-03-23T07:09:52;13.50;;;7.47;;
42196;SDS011;27866;48.146;17.098;2023-03-23T07:14:07;15.02;;;7.93;;
42196;SDS011;27866;48.146;17.098;2023-03-23T07:18:19;12.35;;;7.60;;
42196;SDS011;27866;48.146;17.098;2023-03-23T07:22:33;15.23;;;7.35;;
42196;SDS011;27866;48.146;17.098;2023-03-23T07:26:53;13.50;;;6.93;;
42196;SDS011;27866;48.146;17.098;2023-03-23T07:31:05;13.35;;;7.30;;
42196;SDS011;27866;48.146;17.098;2023-03-23T07:39:51;13.90;;;7.40;;
42196;SDS011;27866;48.146;17.098;2023-03-23T07:44:03;12.43;;;7.57;;
42196;SDS011;27866;48.146;17.098;2023-03-23T07:48:19;17.33;;;7.28;;
42196;SDS011;27866;48.146;17.098;2023-03-23T07:52:31;12.63;;;7.65;;
42196;SDS011;27866;48.146;17.098;2023-03-23T07:56:45;12.68;;;7.63;;
42196;SDS011;27866;48.146;17.098;2023-03-23T08:01:00;14.95;;;7.53;;
42196;SDS011;27866;48.146;17.098;2023-03-23T08:05:15;16.90;;;7.47;;
42196;SDS011;27866;48.146;17.098;2023-03-23T08:09:47;11.02;;;6.78;;
42196;SDS011;27866;48.146;17.098;2023-03-23T08:14:07;10.32;;;6.47;;
42196;SDS011;27866;48.146;17.098;2023-03-23T08:18:37;9.48;;;6.95;;
42196;SDS011;27866;48.146;17.098;2023-03-23T08:22:51;14.77;;;7.00;;
42196;SDS011;27866;48.146;17.098;2023-03-23T08:27:28;11.23;;;7.20;;
42196;SDS011;27866;48.146;17.098;2023-03-23T08:32:00;10.45;;;6.93;;
42196;SDS011;27866;48.146;17.098;2023-03-23T08:36:13;9.43;;;6.30;;
42196;SDS011;27866;48.146;17.098;2023-03-23T08:40:47;23.35;;;6.68;;
42196;SDS011;27866;48.146;17.098;2023-03-23T08:45:38;13.60;;;5.93;;
42196;SDS011;27866;48.146;17.098;2023-03-23T08:50:20;10.52;;;6.78;;
42196;SDS011;27866;48.146;17.098;2023-03-23T08:54:56;13.93;;;6.35;;
42196;SDS011;27866;48.146;17.098;2023-03-23T08:59:15;13.75;;;6.80;;
42196;SDS011;27866;48.146;17.098;2023-03-23T09:03:37;11.65;;;6.68;;
42196;SDS011;27866;48.146;17.098;2023-03-23T09:08:08;11.75;;;6.60;;
42196;SDS011;27866;48.146;17.098;2023-03-23T09:12:20;13.90;;;6.68;;
42196;SDS011;27866;48.146;17.098;2023-03-23T09:16:31;12.15;;;7.47;;
42196;SDS011;27866;48.146;17.098;2023-03-23T09:20:44;12.70;;;6.95;;
42196;SDS011;27866;48.146;17.098;2023-03-23T09:24:57;9.73;;;6.57;;
42196;SDS011;27866;48.146;17.098;2023-03-23T09:29:08;13.63;;;6.30;;
42196;SDS011;27866;48.146;17.098;2023-03-23T09:33:19;10.23;;;6.50;;
42196;SDS011;27866;48.146;17.098;2023-03-23T09:37:31;15.18;;;7.35;;
42196;SDS011;27866;48.146;17.098;2023-03-23T09:46:35;11.77;;;6.43;;
42196;SDS011;27866;48.146;17.098;2023-03-23T09:55:29;10.13;;;5.55;;
42196;SDS011;27866;48.146;17.098;2023-03-23T09:59:42;10.50;;;5.82;;
42196;SDS011;27866;48.146;17.098;2023-03-23T10:08:23;8.70;;;5.70;;
42196;SDS011;27866;48.146;17.098;2023-03-23T10:17:15;12.15;;;5.55;;
42196;SDS011;27866;48.146;17.098;2023-03-23T10:21:43;11.77;;;5.75;;
42196;SDS011;27866;48.146;17.098;2023-03-23T10:26:04;12.50;;;5.70;;
42196;SDS011;27866;48.146;17.098;2023-03-23T10:30:42;12.77;;;5.38;;
42196;SDS011;27866;48.146;17.098;2023-03-23T10:35:13;11.75;;;5.22;;
42196;SDS011;27866;48.146;17.098;2023-03-23T10:39:45;7.50;;;5.65;;
42196;SDS011;27866;48.146;17.098;2023-03-23T10:44:18;7.88;;;5.50;;
42196;SDS011;27866;48.146;17.098;2023-03-23T10:48:36;8.35;;;5.47;;
42196;SDS011;27866;48.146;17.098;2023-03-23T10:52:50;10.05;;;5.43;;
42196;SDS011;27866;48.146;17.098;2023-03-23T10:57:20;11.73;;;5.30;;
42196;SDS011;27866;48.146;17.098;2023-03-23T11:01:41;14.13;;;5.75;;
42196;SDS011;27866;48.146;17.098;2023-03-23T11:05:56;8.30;;;5.78;;
42196;SDS011;27866;48.146;17.098;2023-03-23T11:10:18;9.75;;;5.35;;
42196;SDS011;27866;48.146;17.098;2023-03-23T11:14:45;8.95;;;5.25;;
42196;SDS011;27866;48.146;17.098;2023-03-23T11:18:57;8.15;;;5.35;;
42196;SDS011;27866;48.146;17.098;2023-03-23T11:23:21;9.40;;;5.45;;
42196;SDS011;27866;48.146;17.098;2023-03-23T11:27:37;16.95;;;5.65;;
42196;SDS011;27866;48.146;17.098;2023-03-23T11:31:52;8.98;;;4.93;;
42196;SDS011;27866;48.146;17.098;2023-03-23T11:36:16;10.60;;;5.10;;
42196;SDS011;27866;48.146;17.098;2023-03-23T11:44:43;12.02;;;5.15;;
42196;SDS011;27866;48.146;17.098;2023-03-23T11:49:00;7.82;;;5.18;;
42196;SDS011;27866;48.146;17.098;2023-03-23T11:53:37;10.48;;;5.55;;
42196;SDS011;27866;48.146;17.098;2023-03-23T11:58:12;11.52;;;5.78;;
42196;SDS011;27866;48.146;17.098;2023-03-23T12:12:16;12.02;;;5.63;;
42196;SDS011;27866;48.146;17.098;2023-03-23T12:16:57;8.45;;;6.10;;
42196;SDS011;27866;48.146;17.098;2023-03-23T12:31:08;7.68;;;4.50;;
42196;SDS011;27866;48.146;17.098;2023-03-23T12:44:53;14.70;;;5.80;;
42196;SDS011;27866;48.146;17.098;2023-03-23T12:53:51;9.25;;;5.32;;
42196;SDS011;27866;48.146;17.098;2023-03-23T12:58:24;15.95;;;5.97;;
42196;SDS011;27866;48.146;17.098;2023-03-23T13:03:14;8.52;;;5.28;;
42196;SDS011;27866;48.146;17.098;2023-03-23T13:07:46;9.82;;;5.13;;
42196;SDS011;27866;48.146;17.098;2023-03-23T13:12:14;13.18;;;5.45;;
42196;SDS011;27866;48.146;17.098;2023-03-23T13:21:12;9.45;;;5.35;;
42196;SDS011;27866;48.146;17.098;2023-03-23T13:30:19;11.52;;;5.90;;
42196;SDS011;27866;48.146;17.098;2023-03-23T13:34:34;9.60;;;5.57;;
42196;SDS011;27866;48.146;17.098;2023-03-23T13:38:47;9.63;;;5.78;;
42196;SDS011;27866;48.146;17.098;2023-03-23T13:43:00;11.40;;;5.78;;
42196;SDS011;27866;48.146;17.098;2023-03-23T13:51:47;14.95;;;6.22;;
42196;SDS011;27866;48.146;17.098;2023-03-23T13:56:17;10.15;;;5.80;;
42196;SDS011;27866;48.146;17.098;2023-03-23T14:00:47;16.10;;;5.60;;
42196;SDS011;27866;48.146;17.098;2023-03-23T14:06:00;12.88;;;5.38;;
42196;SDS011;27866;48.146;17.098;2023-03-23T14:09:48;17.27;;;5.90;;
42196;SDS011;27866;48.146;17.098;2023-03-23T14:14:02;13.75;;;6.13;;
42196;SDS011;27866;48.146;17.098;2023-03-23T14:18:16;11.65;;;5.45;;
42196;SDS011;27866;48.146;17.098;2023-03-23T14:22:33;20.02;;;6.13;;
42196;SDS011;27866;48.146;17.098;2023-03-23T14:26:49;13.82;;;5.90;;
42196;SDS011;27866;48.146;17.098;2023-03-23T14:31:03;13.77;;;6.10;;
42196;SDS011;27866;48.146;17.098;2023-03-23T14:35:25;12.05;;;6.60;;
42196;SDS011;27866;48.146;17.098;2023-03-23T14:39:43;11.45;;;6.32;;
42196;SDS011;27866;48.146;17.098;2023-03-23T14:43:59;16.05;;;7.20;;
42196;SDS011;27866;48.146;17.098;2023-03-23T14:48:13;12.10;;;6.95;;
42196;SDS011;27866;48.146;17.098;2023-03-23T14:52:27;15.20;;;7.97;;
42196;SDS011;27866;48.146;17.098;2023-03-23T14:56:42;12.30;;;7.13;;
42196;SDS011;27866;48.146;17.098;2023-03-23T15:00:58;13.65;;;6.47;;
42196;SDS011;27866;48.146;17.098;2023-03-23T15:05:34;12.65;;;6.63;;
42196;SDS011;27866;48.146;17.098;2023-03-23T15:09:49;11.88;;;6.22;;
42196;SDS011;27866;48.146;17.098;2023-03-23T15:14:14;10.40;;;6.35;;
42196;SDS011;27866;48.146;17.098;2023-03-23T15:22:49;11.93;;;7.10;;
42196;SDS011;27866;48.146;17.098;2023-03-23T15:27:44;13.98;;;7.35;;
42196;SDS011;27866;48.146;17.098;2023-03-23T15:31:43;16.50;;;6.68;;
42196;SDS011;27866;48.146;17.098;2023-03-23T15:36:15;14.40;;;7.03;;
42196;SDS011;27866;48.146;17.098;2023-03-23T15:40:31;12.73;;;6.72;;
42196;SDS011;27866;48.146;17.098;2023-03-23T15:44:56;14.05;;;6.68;;
42196;SDS011;27866;48.146;17.098;2023-03-23T15:49:27;21.95;;;8.23;;
42196;SDS011;27866;48.146;17.098;2023-03-23T15:53:39;14.27;;;8.52;;
42196;SDS011;27866;48.146;17.098;2023-03-23T15:57:52;40.88;;;9.77;;
42196;SDS011;27866;48.146;17.098;2023-03-23T16:02:06;17.00;;;8.52;;
42196;SDS011;27866;48.146;17.098;2023-03-23T16:06:26;21.90;;;9.13;;
42196;SDS011;27866;48.146;17.098;2023-03-23T16:10:40;21.20;;;8.85;;
42196;SDS011;27866;48.146;17.098;2023-03-23T16:14:51;48.63;;;11.00;;
42196;SDS011;27866;48.146;17.098;2023-03-23T16:19:03;20.30;;;10.30;;
42196;SDS011;27866;48.146;17.098;2023-03-23T16:23:15;56.88;;;10.73;;
42196;SDS011;27866;48.146;17.098;2023-03-23T16:27:27;17.20;;;9.48;;
42196;SDS011;27866;48.146;17.098;2023-03-23T16:31:38;19.23;;;10.23;;
42196;SDS011;27866;48.146;17.098;2023-03-23T16:35:50;20.80;;;10.20;;
42196;SDS011;27866;48.146;17.098;2023-03-23T16:40:02;22.40;;;11.10;;
42196;SDS011;27866;48.146;17.098;2023-03-23T16:44:15;18.15;;;10.85;;
42196;SDS011;27866;48.146;17.098;2023-03-23T16:48:26;20.80;;;10.00;;
42196;SDS011;27866;48.146;17.098;2023-03-23T16:52:38;18.50;;;10.52;;
42196;SDS011;27866;48.146;17.098;2023-03-23T16:56:51;17.33;;;9.90;;
42196;SDS011;27866;48.146;17.098;2023-03-23T17:01:02;21.73;;;9.63;;
42196;SDS011;27866;48.146;17.098;2023-03-23T17:05:15;22.90;;;9.90;;
42196;SDS011;27866;48.146;17.098;2023-03-23T17:09:32;17.60;;;9.43;;
42196;SDS011;27866;48.146;17.098;2023-03-23T17:13:43;13.90;;;8.38;;
42196;SDS011;27866;48.146;17.098;2023-03-23T17:17:54;18.48;;;9.40;;
42196;SDS011;27866;48.146;17.098;2023-03-23T17:22:06;20.58;;;10.38;;
42196;SDS011;27866;48.146;17.098;2023-03-23T17:26:17;26.42;;;10.15;;
42196;SDS011;27866;48.146;17.098;2023-03-23T17:30:28;17.48;;;9.40;;
42196;SDS011;27866;48.146;17.098;2023-03-23T17:34:40;13.68;;;8.63;;
42196;SDS011;27866;48.146;17.098;2023-03-23T17:38:51;24.30;;;11.02;;
42196;SDS011;27866;48.146;17.098;2023-03-23T17:43:03;19.85;;;9.32;;
42196;SDS011;27866;48.146;17.098;2023-03-23T17:47:14;15.30;;;9.48;;
42196;SDS011;27866;48.146;17.098;2023-03-23T17:51:25;18.70;;;8.45;;
42196;SDS011;27866;48.146;17.098;2023-03-23T17:55:37;15.20;;;9.38;;
42196;SDS011;27866;48.146;17.098;2023-03-23T17:59:50;18.25;;;9.25;;
42196;SDS011;27866;48.146;17.098;2023-03-23T18:04:02;13.77;;;8.55;;
42196;SDS011;27866;48.146;17.098;2023-03-23T18:08:14;15.30;;;8.73;;
42196;SDS011;27866;48.146;17.098;2023-03-23T18:12:27;22.13;;;9.30;;
42196;SDS011;27866;48.146;17.098;2023-03-23T18:16:39;18.13;;;9.45;;
42196;SDS011;27866;48.146;17.098;2023-03-23T18:20:57;17.92;;;8.32;;
42196;SDS011;27866;48.146;17.098;2023-03-23T18:25:14;14.23;;;7.78;;
42196;SDS011;27866;48.146;17.098;2023-03-23T18:29:26;15.85;;;9.00;;
42196;SDS011;27866;48.146;17.098;2023-03-23T18:33:37;12.07;;;7.82;;
42196;SDS011;27866;48.146;17.098;2023-03-23T18:37:51;16.17;;;8.73;;
42196;SDS011;27866;48.146;17.098;2023-03-23T18:42:03;11.02;;;7.13;;
42196;SDS011;27866;48.146;17.098;2023-03-23T18:46:15;15.07;;;7.75;;
42196;SDS011;27866;48.146;17.098;2023-03-23T18:50:26;18.13;;;10.02;;
42196;SDS011;27866;48.146;17.098;2023-03-23T18:54:38;16.10;;;10.18;;
42196;SDS011;27866;48.146;17.098;2023-03-23T18:58:51;17.75;;;10.43;;
42196;SDS011;27866;48.146;17.098;2023-03-23T19:03:03;19.30;;;10.32;;
42196;SDS011;27866;48.146;17.098;2023-03-23T19:07:15;19.85;;;10.90;;
42196;SDS011;27866;48.146;17.098;2023-03-23T19:11:27;14.07;;;9.23;;
42196;SDS011;27866;48.146;17.098;2023-03-23T19:15:39;34.22;;;9.10;;
42196;SDS011;27866;48.146;17.098;2023-03-23T19:19:50;22.45;;;9.50;;
42196;SDS011;27866;48.146;17.098;2023-03-23T19:24:02;18.02;;;8.95;;
42196;SDS011;27866;48.146;17.098;2023-03-23T19:28:14;15.73;;;9.25;;
42196;SDS011;27866;48.146;17.098;2023-03-23T19:32:25;18.33;;;9.68;;
42196;SDS011;27866;48.146;17.098;2023-03-23T19:36:37;18.33;;;10.10;;
42196;SDS011;27866;48.146;17.098;2023-03-23T19:40:58;16.55;;;9.40;;
42196;SDS011;27866;48.146;17.098;2023-03-23T19:45:10;17.95;;;9.45;;
42196;SDS011;27866;48.146;17.098;2023-03-23T19:49:21;19.00;;;9.77;;
42196;SDS011;27866;48.146;17.098;2023-03-23T19:53:33;17.45;;;9.93;;
42196;SDS011;27866;48.146;17.098;2023-03-23T19:57:45;18.52;;;9.75;;
42196;SDS011;27866;48.146;17.098;2023-03-23T20:01:56;27.85;;;13.55;;
42196;SDS011;27866;48.146;17.098;2023-03-23T20:06:08;21.80;;;11.00;;
42196;SDS011;27866;48.146;17.098;2023-03-23T20:10:22;18.95;;;10.95;;
42196;SDS011;27866;48.146;17.098;2023-03-23T20:14:33;14.30;;;9.88;;
42196;SDS011;27866;48.146;17.098;2023-03-23T20:18:45;15.80;;;10.35;;
42196;SDS011;27866;48.146;17.098;2023-03-23T20:22:56;15.88;;;10.40;;
42196;SDS011;27866;48.146;17.098;2023-03-23T20:27:07;19.73;;;10.90;;
42196;SDS011;27866;48.146;17.098;2023-03-23T20:31:23;22.02;;;11.02;;
42196;SDS011;27866;48.146;17.098;2023-03-23T20:35:40;20.63;;;10.43;;
42196;SDS011;27866;48.146;17.098;2023-03-23T20:39:51;16.08;;;10.60;;
42196;SDS011;27866;48.146;17.098;2023-03-23T20:44:03;21.90;;;10.27;;
42196;SDS011;27866;48.146;17.098;2023-03-23T20:48:16;18.17;;;10.13;;
42196;SDS011;27866;48.146;17.098;2023-03-23T20:52:27;19.20;;;11.38;;
42196;SDS011;27866;48.146;17.098;2023-03-23T20:56:38;20.25;;;11.50;;
42196;SDS011;27866;48.146;17.098;2023-03-23T21:00:51;21.58;;;11.93;;
42196;SDS011;27866;48.146;17.098;2023-03-23T21:05:06;18.63;;;11.82;;
42196;SDS011;27866;48.146;17.098;2023-03-23T21:09:18;17.45;;;12.48;;
42196;SDS011;27866;48.146;17.098;2023-03-23T21:13:30;18.10;;;11.80;;
42196;SDS011;27866;48.146;17.098;2023-03-23T21:17:42;16.77;;;11.40;;
42196;SDS011;27866;48.146;17.098;2023-03-23T21:21:53;17.85;;;11.60;;
42196;SDS011;27866;48.146;17.098;2023-03-23T21:26:06;21.23;;;12.63;;
42196;SDS011;27866;48.146;17.098;2023-03-23T21:30:19;24.67;;;12.02;;
42196;SDS011;27866;48.146;17.098;2023-03-23T21:34:32;21.63;;;12.48;;
42196;SDS011;27866;48.146;17.098;2023-03-23T21:38:43;19.98;;;11.68;;
42196;SDS011;27866;48.146;17.098;2023-03-23T21:42:55;19.92;;;11.15;;
42196;SDS011;27866;48.146;17.098;2023-03-23T21:47:07;21.08;;;12.60;;
42196;SDS011;27866;48.146;17.098;2023-03-23T21:51:22;19.33;;;12.48;;
42196;SDS011;27866;48.146;17.098;2023-03-23T21:55:38;20.60;;;12.70;;
42196;SDS011;27866;48.146;17.098;2023-03-23T22:04:04;18.65;;;11.32;;
42196;SDS011;27866;48.146;17.098;2023-03-23T22:08:17;15.75;;;10.15;;
42196;SDS011;27866;48.146;17.098;2023-03-23T22:12:29;20.60;;;10.95;;
42196;SDS011;27866;48.146;17.098;2023-03-23T22:16:40;36.78;;;11.45;;
42196;SDS011;27866;48.146;17.098;2023-03-23T22:20:52;15.23;;;10.80;;
42196;SDS011;27866;48.146;17.098;2023-03-23T22:25:04;18.85;;;11.68;;
42196;SDS011;27866;48.146;17.098;2023-03-23T22:29:15;18.80;;;11.05;;
42196;SDS011;27866;48.146;17.098;2023-03-23T22:33:27;25.27;;;13.70;;
42196;SDS011;27866;48.146;17.098;2023-03-23T22:37:38;26.48;;;13.55;;
42196;SDS011;27866;48.146;17.098;2023-03-23T22:41:50;26.83;;;14.98;;
42196;SDS011;27866;48.146;17.098;2023-03-23T22:46:02;22.02;;;13.93;;
42196;SDS011;27866;48.146;17.098;2023-03-23T22:50:14;29.45;;;15.20;;
42196;SDS011;27866;48.146;17.098;2023-03-23T22:54:26;24.30;;;16.15;;
42196;SDS011;27866;48.146;17.098;2023-03-23T22:58:37;26.33;;;17.50;;
42196;SDS011;27866;48.146;17.098;2023-03-23T23:02:49;29.00;;;18.25;;
42196;SDS011;27866;48.146;17.098;2023-03-23T23:07:00;30.65;;;18.60;;
42196;SDS011;27866;48.146;17.098;2023-03-23T23:11:12;32.10;;;20.70;;
42196;SDS011;27866;48.146;17.098;2023-03-23T23:15:27;32.65;;;21.55;;
42196;SDS011;27866;48.146;17.098;2023-03-23T23:19:38;34.13;;;21.10;;
42196;SDS011;27866;48.146;17.098;2023-03-23T23:23:50;34.33;;;21.00;;
42196;SDS011;27866;48.146;17.098;2023-03-23T23:28:02;31.10;;;20.55;;
42196;SDS011;27866;48.146;17.098;2023-03-23T23:32:15;26.73;;;18.65;;
42196;SDS011;27866;48.146;17.098;2023-03-23T23:36:27;29.00;;;19.50;;
42196;SDS011;27866;48.146;17.098;2023-03-23T23:40:40;28.23;;;18.65;;
42196;SDS011;27866;48.146;17.098;2023-03-23T23:44:52;26.02;;;17.52;;
42196;SDS011;27866;48.146;17.098;2023-03-23T23:49:04;28.17;;;18.00;;
42196;SDS011;27866;48.146;17.098;2023-03-23T23:53:15;27.13;;;17.98;;
42196;SDS011;27866;48.146;17.098;2023-03-23T23:57:32;25.80;;;18.02;;
